sensor_id;sensor_type;location;lat;lon;timestamp;P1;durP1;ratioP1;P2;durP2;ratioP2
46899;SDS011;32647;49.382;7.078;2022-11-11T00:01:58;218.98;;;31.67;;
46899;SDS011;32647;49.382;7.078;2022-11-11T00:04:44;129.00;;;26.05;;
46899;SDS011;32647;49.382;7.078;2022-11-11T00:07:30;182.73;;;30.42;;
46899;SDS011;32647;49.382;7.078;2022-11-11T00:10:16;275.50;;;32.30;;
46899;SDS011;32647;49.382;7.078;2022-11-11T00:13:03;381.20;;;43.83;;
46899;SDS011;32647;49.382;7.078;2022-11-11T00:15:50;575.17;;;55.55;;
46899;SDS011;32647;49.382;7.078;2022-11-11T00:18:36;550.40;;;52.25;;
46899;SDS011;32647;49.382;7.078;2022-11-11T00:21:41;553.10;;;50.83;;
46899;SDS011;32647;49.382;7.078;2022-11-11T00:24:46;503.48;;;48.28;;
46899;SDS011;32647;49.382;7.078;2022-11-11T00:27:50;477.35;;;45.15;;
46899;SDS011;32647;49.382;7.078;2022-11-11T00:30:36;654.63;;;59.40;;
46899;SDS011;32647;49.382;7.078;2022-11-11T00:33:22;454.35;;;41.35;;
46899;SDS011;32647;49.382;7.078;2022-11-11T00:36:08;403.48;;;41.47;;
46899;SDS011;32647;49.382;7.078;2022-11-11T00:38:54;322.98;;;32.83;;
46899;SDS011;32647;49.382;7.078;2022-11-11T00:41:42;550.10;;;52.55;;
46899;SDS011;32647;49.382;7.078;2022-11-11T00:44:28;336.25;;;35.03;;
46899;SDS011;32647;49.382;7.078;2022-11-11T00:47:14;553.08;;;46.85;;
46899;SDS011;32647;49.382;7.078;2022-11-11T00:50:20;392.50;;;37.40;;
46899;SDS011;32647;49.382;7.078;2022-11-11T00:53:29;683.50;;;61.85;;
46899;SDS011;32647;49.382;7.078;2022-11-11T00:56:21;328.20;;;33.72;;
46899;SDS011;32647;49.382;7.078;2022-11-11T00:59:08;486.80;;;46.90;;
46899;SDS011;32647;49.382;7.078;2022-11-11T01:01:54;296.13;;;29.23;;
46899;SDS011;32647;49.382;7.078;2022-11-11T01:04:40;352.55;;;31.25;;
46899;SDS011;32647;49.382;7.078;2022-11-11T01:07:26;371.65;;;33.60;;
46899;SDS011;32647;49.382;7.078;2022-11-11T01:10:12;199.40;;;21.60;;
46899;SDS011;32647;49.382;7.078;2022-11-11T01:12:58;321.83;;;29.95;;
46899;SDS011;32647;49.382;7.078;2022-11-11T01:16:00;324.02;;;28.63;;
46899;SDS011;32647;49.382;7.078;2022-11-11T01:18:49;264.48;;;27.23;;
46899;SDS011;32647;49.382;7.078;2022-11-11T01:21:35;535.83;;;42.65;;
46899;SDS011;32647;49.382;7.078;2022-11-11T01:24:21;303.48;;;27.77;;
46899;SDS011;32647;49.382;7.078;2022-11-11T01:27:07;300.83;;;26.73;;
46899;SDS011;32647;49.382;7.078;2022-11-11T01:29:53;287.42;;;27.50;;
46899;SDS011;32647;49.382;7.078;2022-11-11T01:32:39;270.05;;;27.98;;
46899;SDS011;32647;49.382;7.078;2022-11-11T01:35:25;422.83;;;32.45;;
46899;SDS011;32647;49.382;7.078;2022-11-11T01:38:11;227.00;;;24.92;;
46899;SDS011;32647;49.382;7.078;2022-11-11T01:40:57;248.27;;;26.27;;
46899;SDS011;32647;49.382;7.078;2022-11-11T01:43:43;250.18;;;26.60;;
46899;SDS011;32647;49.382;7.078;2022-11-11T01:49:46;217.23;;;25.95;;
46899;SDS011;32647;49.382;7.078;2022-11-11T01:52:39;266.05;;;26.90;;
46899;SDS011;32647;49.382;7.078;2022-11-11T01:55:29;60.95;;;16.20;;
46899;SDS011;32647;49.382;7.078;2022-11-11T01:58:16;110.55;;;17.75;;
46899;SDS011;32647;49.382;7.078;2022-11-11T02:01:03;156.95;;;22.30;;
46899;SDS011;32647;49.382;7.078;2022-11-11T02:03:51;184.32;;;26.48;;
46899;SDS011;32647;49.382;7.078;2022-11-11T02:06:59;294.98;;;31.92;;
46899;SDS011;32647;49.382;7.078;2022-11-11T02:09:47;287.67;;;29.85;;
46899;SDS011;32647;49.382;7.078;2022-11-11T02:12:35;111.80;;;19.13;;
46899;SDS011;32647;49.382;7.078;2022-11-11T02:15:40;117.50;;;19.45;;
46899;SDS011;32647;49.382;7.078;2022-11-11T02:18:27;193.45;;;22.63;;
46899;SDS011;32647;49.382;7.078;2022-11-11T02:21:21;362.67;;;33.63;;
46899;SDS011;32647;49.382;7.078;2022-11-11T02:24:16;455.55;;;34.17;;
46899;SDS011;32647;49.382;7.078;2022-11-11T02:27:05;332.98;;;29.30;;
46899;SDS011;32647;49.382;7.078;2022-11-11T02:29:54;312.08;;;26.95;;
46899;SDS011;32647;49.382;7.078;2022-11-11T02:32:46;451.30;;;33.35;;
46899;SDS011;32647;49.382;7.078;2022-11-11T02:35:35;653.17;;;51.33;;
46899;SDS011;32647;49.382;7.078;2022-11-11T02:38:23;419.95;;;36.13;;
46899;SDS011;32647;49.382;7.078;2022-11-11T02:41:10;392.65;;;32.40;;
46899;SDS011;32647;49.382;7.078;2022-11-11T02:47:23;493.98;;;41.63;;
46899;SDS011;32647;49.382;7.078;2022-11-11T02:50:10;495.42;;;37.65;;
46899;SDS011;32647;49.382;7.078;2022-11-11T02:52:56;201.35;;;23.67;;
46899;SDS011;32647;49.382;7.078;2022-11-11T02:55:42;281.98;;;26.90;;
46899;SDS011;32647;49.382;7.078;2022-11-11T02:58:28;478.50;;;36.72;;
46899;SDS011;32647;49.382;7.078;2022-11-11T03:01:14;346.73;;;25.20;;
46899;SDS011;32647;49.382;7.078;2022-11-11T03:04:04;418.83;;;31.70;;
46899;SDS011;32647;49.382;7.078;2022-11-11T03:06:50;472.50;;;35.83;;
46899;SDS011;32647;49.382;7.078;2022-11-11T03:09:36;415.45;;;32.58;;
46899;SDS011;32647;49.382;7.078;2022-11-11T03:12:22;434.60;;;36.85;;
46899;SDS011;32647;49.382;7.078;2022-11-11T03:15:08;412.98;;;29.48;;
46899;SDS011;32647;49.382;7.078;2022-11-11T03:17:54;517.53;;;36.10;;
46899;SDS011;32647;49.382;7.078;2022-11-11T03:20:40;427.00;;;36.08;;
46899;SDS011;32647;49.382;7.078;2022-11-11T03:23:46;517.58;;;38.97;;
46899;SDS011;32647;49.382;7.078;2022-11-11T03:26:32;564.53;;;43.03;;
46899;SDS011;32647;49.382;7.078;2022-11-11T03:29:18;502.50;;;34.10;;
46899;SDS011;32647;49.382;7.078;2022-11-11T03:32:05;389.75;;;36.55;;
46899;SDS011;32647;49.382;7.078;2022-11-11T03:34:52;286.83;;;26.13;;
46899;SDS011;32647;49.382;7.078;2022-11-11T03:37:38;413.20;;;29.95;;
46899;SDS011;32647;49.382;7.078;2022-11-11T03:40:42;309.48;;;23.85;;
46899;SDS011;32647;49.382;7.078;2022-11-11T03:43:32;294.48;;;23.48;;
46899;SDS011;32647;49.382;7.078;2022-11-11T03:46:20;267.60;;;22.65;;
46899;SDS011;32647;49.382;7.078;2022-11-11T03:49:05;355.80;;;24.63;;
46899;SDS011;32647;49.382;7.078;2022-11-11T03:51:51;158.10;;;16.38;;
46899;SDS011;32647;49.382;7.078;2022-11-11T03:54:37;70.65;;;10.88;;
46899;SDS011;32647;49.382;7.078;2022-11-11T03:57:23;83.22;;;11.93;;
46899;SDS011;32647;49.382;7.078;2022-11-11T04:00:16;81.88;;;12.23;;
46899;SDS011;32647;49.382;7.078;2022-11-11T04:03:10;53.38;;;10.73;;
46899;SDS011;32647;49.382;7.078;2022-11-11T04:06:16;72.45;;;10.90;;
46899;SDS011;32647;49.382;7.078;2022-11-11T04:09:22;48.97;;;9.52;;
46899;SDS011;32647;49.382;7.078;2022-11-11T04:12:26;56.30;;;10.82;;
46899;SDS011;32647;49.382;7.078;2022-11-11T04:15:14;24.63;;;8.70;;
46899;SDS011;32647;49.382;7.078;2022-11-11T04:18:18;18.83;;;7.53;;
46899;SDS011;32647;49.382;7.078;2022-11-11T04:21:24;33.70;;;9.10;;
46899;SDS011;32647;49.382;7.078;2022-11-11T04:24:29;42.40;;;11.00;;
46899;SDS011;32647;49.382;7.078;2022-11-11T04:27:34;83.63;;;13.63;;
46899;SDS011;32647;49.382;7.078;2022-11-11T04:30:19;143.77;;;15.20;;
46899;SDS011;32647;49.382;7.078;2022-11-11T04:33:06;128.43;;;13.88;;
46899;SDS011;32647;49.382;7.078;2022-11-11T04:35:52;431.80;;;26.83;;
46899;SDS011;32647;49.382;7.078;2022-11-11T04:38:38;247.18;;;25.10;;
46899;SDS011;32647;49.382;7.078;2022-11-11T04:41:42;162.63;;;18.87;;
46899;SDS011;32647;49.382;7.078;2022-11-11T04:44:28;211.77;;;17.50;;
46899;SDS011;32647;49.382;7.078;2022-11-11T04:47:32;205.52;;;16.67;;
46899;SDS011;32647;49.382;7.078;2022-11-11T04:50:19;172.45;;;15.90;;
46899;SDS011;32647;49.382;7.078;2022-11-11T04:53:06;32.08;;;7.50;;
46899;SDS011;32647;49.382;7.078;2022-11-11T04:55:55;16.88;;;7.32;;
46899;SDS011;32647;49.382;7.078;2022-11-11T04:58:59;15.60;;;6.72;;
46899;SDS011;32647;49.382;7.078;2022-11-11T05:02:04;14.13;;;6.75;;
46899;SDS011;32647;49.382;7.078;2022-11-11T05:05:08;11.47;;;5.97;;
46899;SDS011;32647;49.382;7.078;2022-11-11T05:07:54;40.28;;;8.07;;
46899;SDS011;32647;49.382;7.078;2022-11-11T05:10:59;66.13;;;9.25;;
46899;SDS011;32647;49.382;7.078;2022-11-11T05:13:45;83.88;;;10.70;;
46899;SDS011;32647;49.382;7.078;2022-11-11T05:16:56;52.60;;;10.05;;
46899;SDS011;32647;49.382;7.078;2022-11-11T05:20:01;108.13;;;12.52;;
46899;SDS011;32647;49.382;7.078;2022-11-11T05:23:26;79.88;;;11.82;;
46899;SDS011;32647;49.382;7.078;2022-11-11T05:26:32;146.60;;;15.38;;
46899;SDS011;32647;49.382;7.078;2022-11-11T05:29:18;101.75;;;11.85;;
46899;SDS011;32647;49.382;7.078;2022-11-11T05:32:04;173.18;;;17.52;;
46899;SDS011;32647;49.382;7.078;2022-11-11T05:34:53;244.95;;;20.67;;
46899;SDS011;32647;49.382;7.078;2022-11-11T05:40:49;118.97;;;14.32;;
46899;SDS011;32647;49.382;7.078;2022-11-11T05:43:35;110.43;;;14.18;;
46899;SDS011;32647;49.382;7.078;2022-11-11T05:46:29;105.60;;;16.55;;
46899;SDS011;32647;49.382;7.078;2022-11-11T05:49:15;318.38;;;29.42;;
46899;SDS011;32647;49.382;7.078;2022-11-11T05:52:01;174.63;;;18.50;;
46899;SDS011;32647;49.382;7.078;2022-11-11T05:54:47;82.60;;;14.50;;
46899;SDS011;32647;49.382;7.078;2022-11-11T05:57:33;128.57;;;14.23;;
46899;SDS011;32647;49.382;7.078;2022-11-11T06:00:19;185.68;;;14.57;;
46899;SDS011;32647;49.382;7.078;2022-11-11T06:03:05;265.77;;;21.85;;
46899;SDS011;32647;49.382;7.078;2022-11-11T06:05:51;157.77;;;17.88;;
46899;SDS011;32647;49.382;7.078;2022-11-11T06:08:37;162.15;;;14.75;;
46899;SDS011;32647;49.382;7.078;2022-11-11T06:11:23;346.70;;;22.52;;
46899;SDS011;32647;49.382;7.078;2022-11-11T06:14:09;481.58;;;27.27;;
46899;SDS011;32647;49.382;7.078;2022-11-11T06:16:55;310.20;;;22.30;;
46899;SDS011;32647;49.382;7.078;2022-11-11T06:19:41;314.23;;;19.08;;
46899;SDS011;32647;49.382;7.078;2022-11-11T06:22:27;287.30;;;18.20;;
46899;SDS011;32647;49.382;7.078;2022-11-11T06:25:32;343.17;;;20.37;;
46899;SDS011;32647;49.382;7.078;2022-11-11T06:28:41;414.45;;;28.92;;
46899;SDS011;32647;49.382;7.078;2022-11-11T06:31:29;408.77;;;21.85;;
46899;SDS011;32647;49.382;7.078;2022-11-11T06:34:15;353.08;;;20.77;;
46899;SDS011;32647;49.382;7.078;2022-11-11T06:37:01;362.67;;;21.25;;
46899;SDS011;32647;49.382;7.078;2022-11-11T06:39:47;336.48;;;22.15;;
46899;SDS011;32647;49.382;7.078;2022-11-11T06:42:36;344.90;;;22.08;;
46899;SDS011;32647;49.382;7.078;2022-11-11T06:45:23;298.95;;;20.67;;
46899;SDS011;32647;49.382;7.078;2022-11-11T06:48:09;229.80;;;19.38;;
46899;SDS011;32647;49.382;7.078;2022-11-11T06:51:03;230.65;;;18.23;;
46899;SDS011;32647;49.382;7.078;2022-11-11T06:53:50;225.60;;;18.08;;
46899;SDS011;32647;49.382;7.078;2022-11-11T06:56:36;158.15;;;15.40;;
46899;SDS011;32647;49.382;7.078;2022-11-11T06:59:22;310.52;;;23.67;;
46899;SDS011;32647;49.382;7.078;2022-11-11T07:02:11;330.45;;;19.95;;
46899;SDS011;32647;49.382;7.078;2022-11-11T07:04:58;297.92;;;21.15;;
46899;SDS011;32647;49.382;7.078;2022-11-11T07:07:44;330.38;;;24.55;;
46899;SDS011;32647;49.382;7.078;2022-11-11T07:10:31;171.05;;;18.27;;
46899;SDS011;32647;49.382;7.078;2022-11-11T07:13:18;237.20;;;15.55;;
46899;SDS011;32647;49.382;7.078;2022-11-11T07:16:04;322.73;;;21.30;;
46899;SDS011;32647;49.382;7.078;2022-11-11T07:18:50;427.17;;;25.08;;
46899;SDS011;32647;49.382;7.078;2022-11-11T07:21:36;180.15;;;15.15;;
46899;SDS011;32647;49.382;7.078;2022-11-11T07:24:22;175.77;;;13.80;;
46899;SDS011;32647;49.382;7.078;2022-11-11T07:27:08;149.27;;;15.48;;
46899;SDS011;32647;49.382;7.078;2022-11-11T07:29:54;74.43;;;14.77;;
46899;SDS011;32647;49.382;7.078;2022-11-11T07:32:47;17.23;;;10.10;;
46899;SDS011;32647;49.382;7.078;2022-11-11T07:35:36;13.95;;;7.75;;
46899;SDS011;32647;49.382;7.078;2022-11-11T07:38:22;12.40;;;6.35;;
46899;SDS011;32647;49.382;7.078;2022-11-11T07:41:08;22.42;;;12.40;;
46899;SDS011;32647;49.382;7.078;2022-11-11T07:43:54;64.80;;;25.63;;
46899;SDS011;32647;49.382;7.078;2022-11-11T07:46:42;171.32;;;15.23;;
46899;SDS011;32647;49.382;7.078;2022-11-11T07:49:28;117.00;;;12.68;;
46899;SDS011;32647;49.382;7.078;2022-11-11T07:52:14;56.28;;;8.43;;
46899;SDS011;32647;49.382;7.078;2022-11-11T07:55:00;71.82;;;11.15;;
46899;SDS011;32647;49.382;7.078;2022-11-11T07:57:46;257.13;;;23.30;;
46899;SDS011;32647;49.382;7.078;2022-11-11T08:00:35;148.00;;;20.23;;
46899;SDS011;32647;49.382;7.078;2022-11-11T08:03:21;47.97;;;12.55;;
46899;SDS011;32647;49.382;7.078;2022-11-11T08:06:07;18.10;;;9.00;;
46899;SDS011;32647;49.382;7.078;2022-11-11T08:08:53;31.58;;;20.33;;
46899;SDS011;32647;49.382;7.078;2022-11-11T08:11:39;25.48;;;12.32;;
46899;SDS011;32647;49.382;7.078;2022-11-11T08:14:44;22.53;;;9.47;;
46899;SDS011;32647;49.382;7.078;2022-11-11T08:17:30;21.52;;;8.85;;
46899;SDS011;32647;49.382;7.078;2022-11-11T08:20:20;27.42;;;10.18;;
46899;SDS011;32647;49.382;7.078;2022-11-11T08:23:06;31.20;;;10.13;;
46899;SDS011;32647;49.382;7.078;2022-11-11T08:25:56;74.97;;;11.90;;
46899;SDS011;32647;49.382;7.078;2022-11-11T08:28:42;332.23;;;25.33;;
46899;SDS011;32647;49.382;7.078;2022-11-11T08:31:28;245.00;;;22.90;;
46899;SDS011;32647;49.382;7.078;2022-11-11T08:34:14;168.82;;;18.10;;
46899;SDS011;32647;49.382;7.078;2022-11-11T08:37:00;253.65;;;21.00;;
46899;SDS011;32647;49.382;7.078;2022-11-11T08:39:46;228.27;;;18.83;;
46899;SDS011;32647;49.382;7.078;2022-11-11T08:42:32;276.10;;;23.15;;
46899;SDS011;32647;49.382;7.078;2022-11-11T08:45:18;213.15;;;18.45;;
46899;SDS011;32647;49.382;7.078;2022-11-11T08:48:05;191.75;;;19.30;;
46899;SDS011;32647;49.382;7.078;2022-11-11T08:50:54;444.30;;;31.17;;
46899;SDS011;32647;49.382;7.078;2022-11-11T08:53:40;273.45;;;22.83;;
46899;SDS011;32647;49.382;7.078;2022-11-11T08:56:26;205.43;;;18.27;;
46899;SDS011;32647;49.382;7.078;2022-11-11T08:59:12;207.88;;;18.02;;
46899;SDS011;32647;49.382;7.078;2022-11-11T09:01:58;185.88;;;19.58;;
46899;SDS011;32647;49.382;7.078;2022-11-11T09:04:44;95.15;;;14.05;;
46899;SDS011;32647;49.382;7.078;2022-11-11T09:07:31;214.15;;;20.63;;
46899;SDS011;32647;49.382;7.078;2022-11-11T09:10:17;317.80;;;24.50;;
46899;SDS011;32647;49.382;7.078;2022-11-11T09:13:03;169.52;;;15.73;;
46899;SDS011;32647;49.382;7.078;2022-11-11T09:15:51;170.93;;;16.60;;
46899;SDS011;32647;49.382;7.078;2022-11-11T09:18:39;232.38;;;19.55;;
46899;SDS011;32647;49.382;7.078;2022-11-11T09:21:25;214.95;;;19.30;;
46899;SDS011;32647;49.382;7.078;2022-11-11T09:24:11;61.45;;;12.18;;
46899;SDS011;32647;49.382;7.078;2022-11-11T09:26:57;84.43;;;15.75;;
46899;SDS011;32647;49.382;7.078;2022-11-11T09:29:42;188.25;;;20.20;;
46899;SDS011;32647;49.382;7.078;2022-11-11T09:32:29;58.47;;;12.27;;
46899;SDS011;32647;49.382;7.078;2022-11-11T09:35:16;146.75;;;17.70;;
46899;SDS011;32647;49.382;7.078;2022-11-11T09:38:02;176.02;;;18.88;;
46899;SDS011;32647;49.382;7.078;2022-11-11T09:40:52;100.05;;;15.10;;
46899;SDS011;32647;49.382;7.078;2022-11-11T09:43:56;63.97;;;13.23;;
46899;SDS011;32647;49.382;7.078;2022-11-11T09:49:59;34.15;;;11.32;;
46899;SDS011;32647;49.382;7.078;2022-11-11T09:55:54;20.83;;;9.57;;
46899;SDS011;32647;49.382;7.078;2022-11-11T09:58:46;19.55;;;9.50;;
46899;SDS011;32647;49.382;7.078;2022-11-11T10:01:41;41.00;;;10.82;;
46899;SDS011;32647;49.382;7.078;2022-11-11T10:13:26;58.15;;;13.85;;
46899;SDS011;32647;49.382;7.078;2022-11-11T10:16:29;93.68;;;17.00;;
46899;SDS011;32647;49.382;7.078;2022-11-11T10:19:21;41.42;;;13.35;;
46899;SDS011;32647;49.382;7.078;2022-11-11T10:22:33;34.80;;;15.35;;
46899;SDS011;32647;49.382;7.078;2022-11-11T10:25:21;55.03;;;14.43;;
46899;SDS011;32647;49.382;7.078;2022-11-11T10:28:13;71.05;;;15.45;;
46899;SDS011;32647;49.382;7.078;2022-11-11T10:31:04;87.03;;;16.77;;
46899;SDS011;32647;49.382;7.078;2022-11-11T10:33:58;69.50;;;19.13;;
46899;SDS011;32647;49.382;7.078;2022-11-11T10:36:49;68.30;;;15.85;;
46899;SDS011;32647;49.382;7.078;2022-11-11T10:39:51;140.05;;;22.23;;
46899;SDS011;32647;49.382;7.078;2022-11-11T10:42:45;51.25;;;15.00;;
46899;SDS011;32647;49.382;7.078;2022-11-11T10:49:19;38.83;;;14.18;;
46899;SDS011;32647;49.382;7.078;2022-11-11T10:52:12;40.90;;;14.27;;
46899;SDS011;32647;49.382;7.078;2022-11-11T10:55:08;135.00;;;23.17;;
46899;SDS011;32647;49.382;7.078;2022-11-11T10:58:20;100.28;;;20.27;;
46899;SDS011;32647;49.382;7.078;2022-11-11T11:01:13;99.32;;;22.15;;
46899;SDS011;32647;49.382;7.078;2022-11-11T11:04:09;66.57;;;18.92;;
46899;SDS011;32647;49.382;7.078;2022-11-11T11:07:02;193.95;;;23.48;;
46899;SDS011;32647;49.382;7.078;2022-11-11T11:09:54;61.17;;;19.95;;
46899;SDS011;32647;49.382;7.078;2022-11-11T11:16:03;64.03;;;19.25;;
46899;SDS011;32647;49.382;7.078;2022-11-11T11:22:03;27.90;;;15.75;;
46899;SDS011;32647;49.382;7.078;2022-11-11T11:24:49;63.13;;;22.73;;
46899;SDS011;32647;49.382;7.078;2022-11-11T11:27:35;48.20;;;19.30;;
46899;SDS011;32647;49.382;7.078;2022-11-11T11:30:23;42.05;;;17.75;;
46899;SDS011;32647;49.382;7.078;2022-11-11T11:33:10;115.10;;;23.88;;
46899;SDS011;32647;49.382;7.078;2022-11-11T11:35:56;29.45;;;16.23;;
46899;SDS011;32647;49.382;7.078;2022-11-11T11:38:43;24.10;;;14.70;;
46899;SDS011;32647;49.382;7.078;2022-11-11T11:41:39;58.05;;;18.02;;
46899;SDS011;32647;49.382;7.078;2022-11-11T11:44:33;51.17;;;19.48;;
46899;SDS011;32647;49.382;7.078;2022-11-11T11:47:24;26.17;;;14.27;;
46899;SDS011;32647;49.382;7.078;2022-11-11T11:50:28;36.85;;;17.65;;
46899;SDS011;32647;49.382;7.078;2022-11-11T11:59:58;31.90;;;17.65;;
46899;SDS011;32647;49.382;7.078;2022-11-11T12:05:35;25.08;;;15.68;;
46899;SDS011;32647;49.382;7.078;2022-11-11T12:11:38;36.60;;;17.30;;
46899;SDS011;32647;49.382;7.078;2022-11-11T12:20:48;26.67;;;15.45;;
46899;SDS011;32647;49.382;7.078;2022-11-11T12:30:46;33.90;;;16.38;;
46899;SDS011;32647;49.382;7.078;2022-11-11T12:36:34;28.63;;;17.45;;
46899;SDS011;32647;49.382;7.078;2022-11-11T12:42:48;21.80;;;15.13;;
46899;SDS011;32647;49.382;7.078;2022-11-11T12:46:05;26.48;;;15.85;;
46899;SDS011;32647;49.382;7.078;2022-11-11T12:53:02;77.50;;;20.30;;
46899;SDS011;32647;49.382;7.078;2022-11-11T12:55:42;59.17;;;19.75;;
46899;SDS011;32647;49.382;7.078;2022-11-11T12:58:43;72.68;;;43.70;;
46899;SDS011;32647;49.382;7.078;2022-11-11T13:01:45;116.50;;;31.77;;
46899;SDS011;32647;49.382;7.078;2022-11-11T13:04:49;40.53;;;19.63;;
46899;SDS011;32647;49.382;7.078;2022-11-11T13:11:07;30.80;;;18.98;;
46899;SDS011;32647;49.382;7.078;2022-11-11T13:17:13;74.68;;;22.98;;
46899;SDS011;32647;49.382;7.078;2022-11-11T13:20:02;107.95;;;26.20;;
46899;SDS011;32647;49.382;7.078;2022-11-11T13:22:58;49.45;;;26.15;;
46899;SDS011;32647;49.382;7.078;2022-11-11T13:25:45;33.90;;;18.85;;
46899;SDS011;32647;49.382;7.078;2022-11-11T13:28:36;28.95;;;18.10;;
46899;SDS011;32647;49.382;7.078;2022-11-11T13:31:37;38.40;;;20.00;;
46899;SDS011;32647;49.382;7.078;2022-11-11T13:34:26;36.55;;;18.23;;
46899;SDS011;32647;49.382;7.078;2022-11-11T13:37:26;48.83;;;19.42;;
46899;SDS011;32647;49.382;7.078;2022-11-11T13:40:31;66.38;;;22.60;;
46899;SDS011;32647;49.382;7.078;2022-11-11T13:43:30;45.28;;;19.52;;
46899;SDS011;32647;49.382;7.078;2022-11-11T13:46:40;312.63;;;32.92;;
46899;SDS011;32647;49.382;7.078;2022-11-11T13:49:35;64.72;;;22.23;;
46899;SDS011;32647;49.382;7.078;2022-11-11T13:52:35;110.07;;;22.42;;
46899;SDS011;32647;49.382;7.078;2022-11-11T13:58:21;502.55;;;49.75;;
46899;SDS011;32647;49.382;7.078;2022-11-11T14:01:10;692.05;;;55.67;;
46899;SDS011;32647;49.382;7.078;2022-11-11T14:03:58;378.40;;;40.50;;
46899;SDS011;32647;49.382;7.078;2022-11-11T14:06:52;241.55;;;31.77;;
46899;SDS011;32647;49.382;7.078;2022-11-11T14:10:12;64.40;;;21.73;;
46899;SDS011;32647;49.382;7.078;2022-11-11T14:12:54;429.38;;;39.45;;
46899;SDS011;32647;49.382;7.078;2022-11-11T14:15:43;340.30;;;37.92;;
46899;SDS011;32647;49.382;7.078;2022-11-11T14:18:32;280.63;;;34.10;;
46899;SDS011;32647;49.382;7.078;2022-11-11T14:21:43;87.55;;;27.33;;
46899;SDS011;32647;49.382;7.078;2022-11-11T14:27:26;230.27;;;30.83;;
46899;SDS011;32647;49.382;7.078;2022-11-11T14:30:32;163.30;;;25.23;;
46899;SDS011;32647;49.382;7.078;2022-11-11T14:36:23;261.65;;;29.63;;
46899;SDS011;32647;49.382;7.078;2022-11-11T14:51:36;537.38;;;55.38;;
46899;SDS011;32647;49.382;7.078;2022-11-11T14:54:34;311.25;;;38.10;;
46899;SDS011;32647;49.382;7.078;2022-11-11T15:06:45;211.32;;;29.98;;
46899;SDS011;32647;49.382;7.078;2022-11-11T15:31:24;221.85;;;33.05;;
46899;SDS011;32647;49.382;7.078;2022-11-11T15:37:25;203.43;;;33.30;;
46899;SDS011;32647;49.382;7.078;2022-11-11T15:40:19;161.00;;;28.20;;
46899;SDS011;32647;49.382;7.078;2022-11-11T15:43:10;214.52;;;30.50;;
46899;SDS011;32647;49.382;7.078;2022-11-11T15:46:05;237.10;;;31.92;;
46899;SDS011;32647;49.382;7.078;2022-11-11T15:48:51;170.70;;;28.30;;
46899;SDS011;32647;49.382;7.078;2022-11-11T15:51:37;153.30;;;29.83;;
46899;SDS011;32647;49.382;7.078;2022-11-11T15:54:23;113.40;;;24.73;;
46899;SDS011;32647;49.382;7.078;2022-11-11T15:57:14;59.35;;;20.98;;
46899;SDS011;32647;49.382;7.078;2022-11-11T16:00:03;106.22;;;24.90;;
46899;SDS011;32647;49.382;7.078;2022-11-11T16:06:20;75.32;;;24.23;;
46899;SDS011;32647;49.382;7.078;2022-11-11T16:09:08;87.45;;;22.63;;
46899;SDS011;32647;49.382;7.078;2022-11-11T16:11:57;161.70;;;28.58;;
46899;SDS011;32647;49.382;7.078;2022-11-11T16:14:43;139.90;;;28.50;;
46899;SDS011;32647;49.382;7.078;2022-11-11T16:17:35;84.55;;;21.33;;
46899;SDS011;32647;49.382;7.078;2022-11-11T16:20:26;116.40;;;23.33;;
46899;SDS011;32647;49.382;7.078;2022-11-11T16:23:18;152.32;;;28.77;;
46899;SDS011;32647;49.382;7.078;2022-11-11T16:26:05;72.32;;;20.98;;
46899;SDS011;32647;49.382;7.078;2022-11-11T16:28:53;79.65;;;22.08;;
46899;SDS011;32647;49.382;7.078;2022-11-11T16:31:41;75.03;;;21.40;;
46899;SDS011;32647;49.382;7.078;2022-11-11T16:34:32;68.68;;;23.08;;
46899;SDS011;32647;49.382;7.078;2022-11-11T16:37:19;88.20;;;25.52;;
46899;SDS011;32647;49.382;7.078;2022-11-11T16:43:23;86.28;;;24.50;;
46899;SDS011;32647;49.382;7.078;2022-11-11T16:46:12;46.33;;;18.20;;
46899;SDS011;32647;49.382;7.078;2022-11-11T16:49:00;79.05;;;19.85;;
46899;SDS011;32647;49.382;7.078;2022-11-11T16:52:18;170.95;;;23.02;;
46899;SDS011;32647;49.382;7.078;2022-11-11T16:55:08;148.70;;;21.58;;
46899;SDS011;32647;49.382;7.078;2022-11-11T16:58:09;95.38;;;18.90;;
46899;SDS011;32647;49.382;7.078;2022-11-11T17:00:59;60.80;;;18.45;;
46899;SDS011;32647;49.382;7.078;2022-11-11T17:03:54;123.65;;;23.25;;
46899;SDS011;32647;49.382;7.078;2022-11-11T17:06:49;218.93;;;26.85;;
46899;SDS011;32647;49.382;7.078;2022-11-11T17:09:36;235.57;;;29.38;;
46899;SDS011;32647;49.382;7.078;2022-11-11T17:12:30;214.82;;;26.17;;
46899;SDS011;32647;49.382;7.078;2022-11-11T17:15:17;157.25;;;27.10;;
46899;SDS011;32647;49.382;7.078;2022-11-11T17:18:04;184.98;;;24.10;;
46899;SDS011;32647;49.382;7.078;2022-11-11T17:20:53;147.75;;;24.45;;
46899;SDS011;32647;49.382;7.078;2022-11-11T17:23:40;145.77;;;24.20;;
46899;SDS011;32647;49.382;7.078;2022-11-11T17:26:26;263.75;;;34.17;;
46899;SDS011;32647;49.382;7.078;2022-11-11T17:29:15;330.38;;;37.42;;
46899;SDS011;32647;49.382;7.078;2022-11-11T17:32:01;437.85;;;47.83;;
46899;SDS011;32647;49.382;7.078;2022-11-11T17:34:47;473.45;;;47.05;;
46899;SDS011;32647;49.382;7.078;2022-11-11T17:37:36;355.55;;;39.20;;
46899;SDS011;32647;49.382;7.078;2022-11-11T17:40:22;278.10;;;35.03;;
46899;SDS011;32647;49.382;7.078;2022-11-11T17:43:08;270.83;;;35.90;;
46899;SDS011;32647;49.382;7.078;2022-11-11T17:45:54;295.73;;;37.20;;
46899;SDS011;32647;49.382;7.078;2022-11-11T17:48:41;258.75;;;36.22;;
46899;SDS011;32647;49.382;7.078;2022-11-11T17:51:27;80.07;;;24.27;;
46899;SDS011;32647;49.382;7.078;2022-11-11T17:54:13;236.25;;;32.50;;
46899;SDS011;32647;49.382;7.078;2022-11-11T17:56:59;216.43;;;31.70;;
46899;SDS011;32647;49.382;7.078;2022-11-11T17:59:45;373.33;;;40.33;;
46899;SDS011;32647;49.382;7.078;2022-11-11T18:02:31;234.50;;;34.80;;
46899;SDS011;32647;49.382;7.078;2022-11-11T18:05:17;254.13;;;32.47;;
46899;SDS011;32647;49.382;7.078;2022-11-11T18:08:03;180.18;;;26.90;;
46899;SDS011;32647;49.382;7.078;2022-11-11T18:10:49;232.75;;;34.58;;
46899;SDS011;32647;49.382;7.078;2022-11-11T18:13:35;474.85;;;52.30;;
46899;SDS011;32647;49.382;7.078;2022-11-11T18:16:22;242.32;;;35.75;;
46899;SDS011;32647;49.382;7.078;2022-11-11T18:19:08;114.90;;;24.08;;
46899;SDS011;32647;49.382;7.078;2022-11-11T18:21:54;298.92;;;37.65;;
46899;SDS011;32647;49.382;7.078;2022-11-11T18:24:40;321.48;;;38.97;;
46899;SDS011;32647;49.382;7.078;2022-11-11T18:27:26;266.08;;;31.50;;
46899;SDS011;32647;49.382;7.078;2022-11-11T18:30:15;350.02;;;41.90;;
46899;SDS011;32647;49.382;7.078;2022-11-11T18:33:01;157.15;;;30.80;;
46899;SDS011;32647;49.382;7.078;2022-11-11T18:35:52;181.15;;;28.00;;
46899;SDS011;32647;49.382;7.078;2022-11-11T18:38:38;121.30;;;26.50;;
46899;SDS011;32647;49.382;7.078;2022-11-11T18:41:25;156.07;;;27.83;;
46899;SDS011;32647;49.382;7.078;2022-11-11T18:44:11;207.05;;;28.65;;
46899;SDS011;32647;49.382;7.078;2022-11-11T18:46:57;444.33;;;49.00;;
46899;SDS011;32647;49.382;7.078;2022-11-11T18:49:43;251.10;;;28.20;;